Time;durP1;ratioP1;P1;durP2;ratioP2;P2;SDS_P1;SDS_P2;PMS_P1;PMS_P2;Temp;Humidity;BMP_temperature;BMP_pressure;BME280_temperature;BME280_humidity;BME280_pressure;Samples;Min_cycle;Max_cycle;Signal;HPM_P1;HPM_P2
2024/02/28 00:00:48;;;;;;;22.70;16.33;;;4.10;99.90;;;;;;4930041;28;20206;-48
2024/02/28 00:03:15;;;;;;;20.70;15.87;;;4.10;99.90;;;;;;4965606;28;20205;-51
2024/02/28 00:05:41;;;;;;;21.43;16.90;;;4.10;99.90;;;;;;4963573;28;20202;-53
2024/02/28 00:08:08;;;;;;;24.17;17.17;;;4.10;99.90;;;;;;4966254;28;20730;-50
2024/02/28 00:10:35;;;;;;;22.40;16.63;;;4.10;99.90;;;;;;4945699;28;20791;-51
2024/02/28 00:13:02;;;;;;;22.20;17.07;;;4.10;99.90;;;;;;4966062;28;20194;-51
2024/02/28 00:15:28;;;;;;;23.57;17.97;;;4.10;99.90;;;;;;4926213;28;20308;-52
2024/02/28 00:17:57;;;;;;;25.00;18.40;;;4.00;99.90;;;;;;4966209;28;20214;-49
2024/02/28 00:20:27;;;;;;;21.67;17.00;;;4.00;99.90;;;;;;4961318;28;20273;-52
2024/02/28 00:22:53;;;;;;;27.13;18.73;;;4.00;99.90;;;;;;4959546;28;20206;-53
2024/02/28 00:25:20;;;;;;;25.07;17.83;;;4.00;99.90;;;;;;4948935;28;20269;-50
2024/02/28 00:27:47;;;;;;;27.83;19.83;;;4.00;99.90;;;;;;4957034;28;20186;-49
2024/02/28 00:30:14;;;;;;;26.57;18.77;;;4.00;99.90;;;;;;4938387;28;20210;-52
2024/02/28 00:32:41;;;;;;;26.70;19.27;;;4.00;99.90;;;;;;4962513;28;20205;-48
2024/02/28 00:35:09;;;;;;;31.53;19.73;;;4.00;99.90;;;;;;4965801;28;20202;-49
2024/02/28 00:37:36;;;;;;;27.00;19.57;;;3.90;99.90;;;;;;4961857;28;20360;-48
2024/02/28 00:40:04;;;;;;;30.40;19.43;;;3.90;99.90;;;;;;4958795;28;20239;-51
2024/02/28 00:42:31;;;;;;;30.37;20.30;;;3.90;99.90;;;;;;4945242;28;20210;-52
2024/02/28 00:44:58;;;;;;;31.77;20.37;;;3.90;99.90;;;;;;4938086;28;20210;-53
2024/02/28 00:47:25;;;;;;;32.93;21.37;;;3.90;99.90;;;;;;4962163;28;20202;-53
2024/02/28 00:49:52;;;;;;;36.23;22.83;;;3.90;99.90;;;;;;4964231;28;20718;-48
2024/02/28 00:52:20;;;;;;;32.10;20.53;;;3.90;99.90;;;;;;4963521;28;20799;-54
2024/02/28 00:54:47;;;;;;;32.23;21.47;;;3.90;99.90;;;;;;4963157;28;20202;-49
2024/02/28 00:57:14;;;;;;;35.17;22.27;;;3.90;99.90;;;;;;4948112;28;20222;-55
2024/02/28 00:59:40;;;;;;;31.20;21.77;;;3.90;99.90;;;;;;4962077;28;20245;-50
2024/02/28 01:02:07;;;;;;;37.60;22.80;;;3.90;99.90;;;;;;4937093;28;20217;-48
2024/02/28 01:04:34;;;;;;;34.13;22.20;;;3.80;99.90;;;;;;4961538;28;20198;-51
2024/02/28 01:07:01;;;;;;;33.03;21.67;;;3.80;99.90;;;;;;4963178;28;20270;-49
2024/02/28 01:09:29;;;;;;;34.67;21.50;;;3.80;99.90;;;;;;4961720;28;20225;-52
2024/02/28 01:11:56;;;;;;;32.90;21.13;;;3.80;99.90;;;;;;4947769;28;20240;-49
2024/02/28 01:14:22;;;;;;;33.10;21.00;;;3.80;99.90;;;;;;4962576;28;20249;-52
2024/02/28 01:16:49;;;;;;;33.07;19.67;;;3.80;99.90;;;;;;4935790;28;20218;-49
2024/02/28 01:19:17;;;;;;;33.40;21.47;;;3.80;99.90;;;;;;4964195;28;20224;-53
2024/02/28 01:21:43;;;;;;;32.50;20.40;;;3.80;99.90;;;;;;4962364;28;21001;-48
2024/02/28 01:24:10;;;;;;;31.43;20.30;;;3.80;99.90;;;;;;4965233;28;20201;-47
2024/02/28 01:26:38;;;;;;;35.40;20.17;;;3.70;99.90;;;;;;4961159;28;20194;-52
2024/02/28 01:29:05;;;;;;;31.97;19.27;;;3.70;99.90;;;;;;4947714;28;20279;-51
2024/02/28 01:31:32;;;;;;;31.13;18.90;;;3.70;99.90;;;;;;4933430;28;21485;-52
2024/02/28 01:33:59;;;;;;;31.60;19.87;;;3.70;99.90;;;;;;4965109;28;20210;-51
2024/02/28 01:36:26;;;;;;;31.57;19.33;;;3.60;99.90;;;;;;4961453;28;20549;-51
2024/02/28 01:38:54;;;;;;;32.60;19.20;;;3.60;99.90;;;;;;4963376;28;20241;-52
2024/02/28 01:41:21;;;;;;;30.73;19.27;;;3.60;99.90;;;;;;4962572;28;20202;-52
2024/02/28 01:43:49;;;;;;;31.33;19.83;;;3.50;99.90;;;;;;4945520;28;20271;-48
2024/02/28 01:46:23;;;;;;;31.33;19.83;;;3.50;99.90;;;;;;4955542;28;20210;-52
2024/02/28 01:48:50;;;;;;;32.03;19.50;;;3.50;99.90;;;;;;4956562;28;20699;-49
2024/02/28 01:51:17;;;;;;;34.43;20.00;;;3.50;99.90;;;;;;4963124;28;20261;-48
2024/02/28 01:53:45;;;;;;;33.13;19.47;;;3.50;99.90;;;;;;4961795;28;20199;-48
2024/02/28 01:56:14;;;;;;;30.37;19.10;;;3.50;99.90;;;;;;4964123;28;20889;-48
2024/02/28 01:58:41;;;;;;;30.97;19.07;;;3.50;99.90;;;;;;4944615;28;20463;-50
2024/02/28 02:01:11;;;;;;;32.37;19.73;;;3.50;99.90;;;;;;4964332;28;20296;-46
2024/02/28 02:03:37;;;;;;;28.40;18.30;;;3.50;99.90;;;;;;4933107;28;20210;-46
2024/02/28 02:06:05;;;;;;;29.80;19.27;;;3.50;99.90;;;;;;4964508;28;20237;-50
2024/02/28 02:08:32;;;;;;;29.77;18.83;;;3.50;99.90;;;;;;4959846;28;20237;-53
2024/02/28 02:10:59;;;;;;;28.70;17.80;;;3.50;99.90;;;;;;4964306;28;20202;-51
2024/02/28 02:13:25;;;;;;;31.20;18.70;;;3.50;99.90;;;;;;4948542;28;20260;-56
2024/02/28 02:15:52;;;;;;;31.00;18.90;;;3.50;99.90;;;;;;4961066;28;20205;-49
2024/02/28 02:18:21;;;;;;;30.67;18.10;;;3.50;99.90;;;;;;4946647;28;20734;-53
2024/02/28 02:20:54;;;;;;;30.67;18.47;;;3.50;99.90;;;;;;4953167;28;20217;-49
2024/02/28 02:23:22;;;;;;;32.20;18.53;;;3.40;99.90;;;;;;4961727;28;20206;-53
2024/02/28 02:25:49;;;;;;;29.73;17.30;;;3.40;99.90;;;;;;4962867;28;20927;-48
2024/02/28 02:28:16;;;;;;;30.57;18.47;;;3.50;99.90;;;;;;4962705;28;20716;-53
2024/02/28 02:30:43;;;;;;;27.67;17.17;;;3.50;99.90;;;;;;4944597;28;20194;-55
2024/02/28 02:33:10;;;;;;;29.77;17.40;;;3.50;99.90;;;;;;4963840;28;20608;-51
2024/02/28 02:35:38;;;;;;;28.33;16.83;;;3.50;99.90;;;;;;4936730;28;20201;-53
2024/02/28 02:38:05;;;;;;;25.43;16.47;;;3.50;99.90;;;;;;4964062;28;20617;-52
2024/02/28 02:40:33;;;;;;;26.20;15.97;;;3.50;99.90;;;;;;4959934;28;20240;-49
2024/02/28 02:42:59;;;;;;;28.53;17.30;;;3.50;99.90;;;;;;4961320;28;20201;-49
2024/02/28 02:45:26;;;;;;;25.90;16.60;;;3.40;99.90;;;;;;4944073;28;20727;-53
2024/02/28 02:47:53;;;;;;;28.13;16.77;;;3.40;99.90;;;;;;4962776;28;20221;-47
2024/02/28 02:50:20;;;;;;;30.27;17.40;;;3.30;99.90;;;;;;4932222;28;20271;-56
2024/02/28 02:52:47;;;;;;;29.77;16.60;;;3.30;99.90;;;;;;4961484;28;20210;-51
2024/02/28 02:55:14;;;;;;;31.57;19.00;;;3.30;99.90;;;;;;4959042;28;20217;-47
2024/02/28 02:57:43;;;;;;;31.57;18.27;;;3.30;99.90;;;;;;4959962;28;20264;-44
2024/02/28 03:00:11;;;;;;;32.33;19.27;;;3.30;99.90;;;;;;4962363;28;20228;-48
2024/02/28 03:02:39;;;;;;;29.30;17.07;;;3.30;99.90;;;;;;4945450;28;20206;-48
2024/02/28 03:05:07;;;;;;;28.43;17.17;;;3.30;99.90;;;;;;4934498;28;20214;-48
2024/02/28 03:07:34;;;;;;;26.77;16.77;;;3.20;99.90;;;;;;4959862;28;20292;-49
2024/02/28 03:10:01;;;;;;;27.93;16.20;;;3.30;99.90;;;;;;4961350;28;20598;-47
2024/02/28 03:12:28;;;;;;;28.83;17.30;;;3.20;99.90;;;;;;4959758;28;20900;-49
2024/02/28 03:14:57;;;;;;;27.30;16.43;;;3.20;99.90;;;;;;4963764;28;20206;-49
2024/02/28 03:17:23;;;;;;;25.07;15.67;;;3.20;99.90;;;;;;4944164;28;20288;-52
2024/02/28 03:19:50;;;;;;;24.60;15.03;;;3.20;99.90;;;;;;4962382;28;20214;-53
2024/02/28 03:22:17;;;;;;;25.83;15.10;;;3.20;99.90;;;;;;4934406;28;20238;-49
2024/02/28 03:24:44;;;;;;;26.23;15.97;;;3.20;99.90;;;;;;4961409;28;20190;-47
2024/02/28 03:27:11;;;;;;;23.83;14.40;;;3.20;99.90;;;;;;4967017;28;20245;-49
2024/02/28 03:29:38;;;;;;;21.87;13.83;;;3.20;99.90;;;;;;4963340;28;20229;-45
2024/02/28 03:32:07;;;;;;;25.30;14.50;;;3.20;99.90;;;;;;4950223;28;20704;-50
2024/02/28 03:34:33;;;;;;;24.13;15.03;;;3.30;99.90;;;;;;4963201;28;20277;-45
2024/02/28 03:37:00;;;;;;;25.87;15.60;;;3.30;99.90;;;;;;4937863;28;20229;-49
2024/02/28 03:39:27;;;;;;;24.57;15.10;;;3.30;99.90;;;;;;4963606;28;20218;-52
2024/02/28 03:41:54;;;;;;;27.07;15.93;;;3.30;99.90;;;;;;4966345;28;20248;-46
2024/02/28 03:44:21;;;;;;;27.60;16.40;;;3.30;99.90;;;;;;4964658;28;20206;-51
2024/02/28 03:46:48;;;;;;;24.83;15.40;;;3.30;99.90;;;;;;4948753;28;20206;-47
2024/02/28 03:49:16;;;;;;;26.13;14.97;;;3.30;99.90;;;;;;4966465;28;20226;-49
2024/02/28 03:51:43;;;;;;;29.37;17.20;;;3.30;99.90;;;;;;4936682;28;21037;-48
2024/02/28 03:54:10;;;;;;;31.50;16.27;;;3.30;99.90;;;;;;4966692;28;20198;-46
2024/02/28 03:56:37;;;;;;;27.13;15.67;;;3.30;99.90;;;;;;4962952;28;20198;-46
2024/02/28 03:59:04;;;;;;;27.77;17.13;;;3.30;99.90;;;;;;4966643;28;20229;-51
2024/02/28 04:01:31;;;;;;;27.27;15.77;;;3.30;99.90;;;;;;4959775;28;20226;-53
2024/02/28 04:03:58;;;;;;;26.53;14.77;;;3.30;99.90;;;;;;4949752;28;20730;-50
2024/02/28 04:06:26;;;;;;;24.57;14.90;;;3.30;99.90;;;;;;4964026;28;20252;-52
2024/02/28 04:08:53;;;;;;;25.67;14.87;;;3.30;99.90;;;;;;4938317;28;20245;-49
2024/02/28 04:11:20;;;;;;;26.57;15.37;;;3.30;99.90;;;;;;4960539;28;20202;-53
2024/02/28 04:13:47;;;;;;;26.93;15.63;;;3.30;99.90;;;;;;4964381;28;20202;-51
2024/02/28 04:16:14;;;;;;;27.13;15.93;;;3.40;99.90;;;;;;4965841;28;20214;-54
2024/02/28 04:18:41;;;;;;;28.77;16.23;;;3.30;99.90;;;;;;4946119;28;21387;-48
2024/02/28 04:21:07;;;;;;;29.03;16.03;;;3.30;99.90;;;;;;4966082;28;20222;-50
2024/02/28 04:23:36;;;;;;;26.90;15.10;;;3.30;99.90;;;;;;4934748;28;22206;-53
2024/02/28 04:26:03;;;;;;;25.10;14.57;;;3.30;99.90;;;;;;4966097;28;20563;-53
2024/02/28 04:28:30;;;;;;;27.57;15.97;;;3.30;99.90;;;;;;4961798;28;20213;-51
2024/02/28 04:30:57;;;;;;;25.43;15.40;;;3.30;99.90;;;;;;4965375;28;20245;-51
2024/02/28 04:33:23;;;;;;;27.97;16.10;;;3.30;99.90;;;;;;4952134;28;20599;-53
2024/02/28 04:35:50;;;;;;;27.83;14.87;;;3.30;99.90;;;;;;4960130;28;20206;-51
2024/02/28 04:38:17;;;;;;;27.30;15.03;;;3.30;99.90;;;;;;4963232;28;20214;-53
2024/02/28 04:40:45;;;;;;;24.97;15.60;;;3.20;99.90;;;;;;4936190;28;20226;-47
2024/02/28 04:43:12;;;;;;;24.77;14.77;;;3.20;99.90;;;;;;4964947;28;20198;-49
2024/02/28 04:45:39;;;;;;;26.67;15.10;;;3.20;99.90;;;;;;4962261;28;20297;-48
2024/02/28 04:48:07;;;;;;;22.93;14.07;;;3.20;99.90;;;;;;4965524;28;20222;-49
2024/02/28 04:50:34;;;;;;;28.20;15.00;;;3.20;99.90;;;;;;4944928;28;20218;-46
2024/02/28 04:53:01;;;;;;;24.70;14.50;;;3.20;99.90;;;;;;4960519;28;20692;-50
2024/02/28 04:55:28;;;;;;;24.77;13.77;;;3.20;99.90;;;;;;4938413;28;20676;-52
2024/02/28 04:57:56;;;;;;;27.93;15.20;;;3.20;99.90;;;;;;4957758;28;20604;-46
2024/02/28 05:00:22;;;;;;;26.90;13.77;;;3.20;99.90;;;;;;4962498;28;20253;-46
2024/02/28 05:02:49;;;;;;;24.30;14.37;;;3.20;99.90;;;;;;4951887;28;20303;-52
2024/02/28 05:05:16;;;;;;;27.53;14.77;;;3.20;99.90;;;;;;4958881;28;20194;-52
2024/02/28 05:07:43;;;;;;;25.83;14.77;;;3.20;99.90;;;;;;4951990;28;20191;-48
2024/02/28 05:10:10;;;;;;;25.43;14.70;;;3.20;99.90;;;;;;4966985;28;20629;-50
2024/02/28 05:12:38;;;;;;;29.63;16.40;;;3.20;99.90;;;;;;4925314;28;20226;-50
2024/02/28 05:15:07;;;;;;;26.87;15.73;;;3.20;99.90;;;;;;4965269;28;20249;-51
2024/02/28 05:17:34;;;;;;;22.53;13.47;;;3.20;99.90;;;;;;4958562;28;20205;-48
2024/02/28 05:20:01;;;;;;;27.27;15.53;;;3.20;99.90;;;;;;4965016;28;20222;-49
2024/02/28 05:22:28;;;;;;;25.40;14.37;;;3.20;99.90;;;;;;4943880;28;20218;-54
2024/02/28 05:24:54;;;;;;;24.23;14.87;;;3.20;99.90;;;;;;4964306;28;20194;-52
2024/02/28 05:27:21;;;;;;;27.27;16.33;;;3.30;99.90;;;;;;4945829;28;20248;-54
2024/02/28 05:29:49;;;;;;;28.37;14.80;;;3.30;99.90;;;;;;4950617;28;20324;-48
2024/02/28 05:32:18;;;;;;;24.77;13.63;;;3.30;99.90;;;;;;4963148;28;20206;-49
2024/02/28 05:34:45;;;;;;;27.30;14.80;;;3.30;99.90;;;;;;4961497;28;20200;-51
2024/02/28 05:37:12;;;;;;;25.47;14.83;;;3.30;99.90;;;;;;4962640;28;20194;-47
2024/02/28 05:39:39;;;;;;;28.47;14.60;;;3.30;99.90;;;;;;4948040;28;20218;-46
2024/02/28 05:42:06;;;;;;;25.87;15.10;;;3.40;99.90;;;;;;4964634;28;20217;-53
2024/02/28 05:44:34;;;;;;;26.20;15.73;;;3.40;99.90;;;;;;4926570;28;20225;-46
2024/02/28 05:47:01;;;;;;;26.50;15.30;;;3.40;99.90;;;;;;4965168;28;20231;-49
2024/02/28 05:49:29;;;;;;;28.90;15.87;;;3.40;99.90;;;;;;4960028;28;20308;-49
2024/02/28 05:51:56;;;;;;;25.40;15.63;;;3.40;99.90;;;;;;4964283;28;20717;-46
2024/02/28 05:54:23;;;;;;;27.23;16.00;;;3.40;99.90;;;;;;4945021;28;20202;-51
2024/02/28 05:56:49;;;;;;;26.40;14.00;;;3.40;99.90;;;;;;4963476;28;20235;-48
2024/02/28 05:59:16;;;;;;;25.80;15.03;;;3.40;99.90;;;;;;4935403;28;20873;-50
2024/02/28 06:01:45;;;;;;;27.67;15.47;;;3.40;99.90;;;;;;4956366;28;20210;-46
2024/02/28 06:04:12;;;;;;;28.33;15.67;;;3.40;99.90;;;;;;4963813;28;20937;-52
2024/02/28 06:06:40;;;;;;;28.40;15.77;;;3.40;99.90;;;;;;4961272;28;20236;-47
2024/02/28 06:09:10;;;;;;;29.27;14.67;;;3.50;99.90;;;;;;4964277;28;20284;-46
2024/02/28 06:11:37;;;;;;;27.50;15.10;;;3.50;99.90;;;;;;4945467;28;20280;-48
2024/02/28 06:14:04;;;;;;;31.17;16.93;;;3.50;99.90;;;;;;4937408;28;20292;-46
2024/02/28 06:16:31;;;;;;;28.73;15.87;;;3.50;99.90;;;;;;4953150;28;20212;-48
2024/02/28 06:18:58;;;;;;;26.20;16.07;;;3.50;99.90;;;;;;4963565;28;20312;-47
2024/02/28 06:21:25;;;;;;;30.07;16.53;;;3.60;99.90;;;;;;4961281;28;20218;-49
2024/02/28 06:23:53;;;;;;;26.07;14.67;;;3.60;99.90;;;;;;4948297;28;20209;-47
2024/02/28 06:26:20;;;;;;;29.23;15.83;;;3.60;99.90;;;;;;4938767;28;20210;-50
2024/02/28 06:28:47;;;;;;;31.00;16.73;;;3.60;99.90;;;;;;4922673;28;20230;-50
2024/02/28 06:31:16;;;;;;;31.00;16.33;;;3.60;99.90;;;;;;4953292;28;20288;-50
2024/02/28 06:33:43;;;;;;;30.83;16.40;;;3.60;99.90;;;;;;4956998;28;21043;-51
2024/02/28 06:36:10;;;;;;;31.20;17.03;;;3.60;99.90;;;;;;4949513;28;20292;-50
2024/02/28 06:38:36;;;;;;;30.40;15.90;;;3.60;99.90;;;;;;4963133;28;20222;-50
2024/02/28 06:41:05;;;;;;;28.27;16.77;;;3.60;99.90;;;;;;4935085;28;20715;-52
2024/02/28 06:43:35;;;;;;;30.10;16.97;;;3.70;99.90;;;;;;4954135;28;20210;-50
2024/02/28 06:46:02;;;;;;;30.83;17.93;;;3.60;99.90;;;;;;4927944;28;20946;-50
2024/02/28 06:48:29;;;;;;;28.93;16.97;;;3.70;99.90;;;;;;4962927;28;20226;-53
2024/02/28 06:50:56;;;;;;;28.07;17.13;;;3.70;99.90;;;;;;4952201;28;20888;-52
2024/02/28 06:53:23;;;;;;;31.03;17.40;;;3.70;99.90;;;;;;4954511;28;20198;-52
2024/02/28 06:55:50;;;;;;;29.73;16.97;;;3.70;99.90;;;;;;4959981;28;20185;-54
2024/02/28 06:58:18;;;;;;;28.40;16.90;;;3.70;99.90;;;;;;4947688;28;20233;-51
2024/02/28 07:00:44;;;;;;;28.20;16.80;;;3.70;99.90;;;;;;4927948;28;20241;-54
2024/02/28 07:03:11;;;;;;;24.63;16.13;;;3.70;99.90;;;;;;4957989;28;20670;-50
2024/02/28 07:05:38;;;;;;;26.57;16.67;;;3.70;99.90;;;;;;4961082;28;20197;-52
2024/02/28 07:08:05;;;;;;;27.03;16.57;;;3.70;99.90;;;;;;4962683;28;20280;-53
2024/02/28 07:10:32;;;;;;;26.97;15.40;;;3.80;99.90;;;;;;4964761;28;20202;-50
2024/02/28 07:12:59;;;;;;;28.43;16.53;;;3.80;99.90;;;;;;4949402;28;20221;-49
2024/02/28 07:15:27;;;;;;;24.20;15.17;;;3.80;99.90;;;;;;4962832;28;20292;-47
2024/02/28 07:17:54;;;;;;;23.07;14.03;;;3.80;99.90;;;;;;4942847;28;20377;-48
2024/02/28 07:20:21;;;;;;;25.20;15.07;;;3.80;99.90;;;;;;4967735;28;20281;-49
2024/02/28 07:22:47;;;;;;;23.33;13.97;;;3.80;99.90;;;;;;4955712;28;20202;-49
2024/02/28 07:25:14;;;;;;;24.07;14.27;;;3.90;99.90;;;;;;4967254;28;20209;-52
2024/02/28 07:27:41;;;;;;;23.07;14.53;;;3.90;99.90;;;;;;4954937;28;20280;-54
2024/02/28 07:30:09;;;;;;;21.57;13.37;;;3.90;99.90;;;;;;4956351;28;20205;-50
2024/02/28 07:32:37;;;;;;;24.23;14.07;;;3.90;99.90;;;;;;4939990;28;20273;-55
2024/02/28 07:35:04;;;;;;;22.63;12.50;;;4.00;99.90;;;;;;4953349;28;20202;-54
2024/02/28 07:37:31;;;;;;;21.20;13.03;;;4.00;99.90;;;;;;4957862;28;20214;-50
2024/02/28 07:39:58;;;;;;;20.37;13.27;;;4.00;99.90;;;;;;4961093;28;20226;-53
2024/02/28 07:42:25;;;;;;;22.17;13.60;;;4.00;99.90;;;;;;4965339;28;20202;-53
2024/02/28 07:44:56;;;;;;;20.33;12.43;;;4.10;99.90;;;;;;4950969;28;20205;-53
2024/02/28 07:47:23;;;;;;;21.20;13.00;;;4.10;99.90;;;;;;4933516;28;21440;-54
2024/02/28 07:49:51;;;;;;;23.13;12.93;;;4.10;99.90;;;;;;4966672;28;20588;-53
2024/02/28 07:52:18;;;;;;;17.90;12.30;;;4.20;99.90;;;;;;4955217;28;21029;-54
2024/02/28 07:54:45;;;;;;;21.27;13.20;;;4.20;99.90;;;;;;4967054;28;20225;-50
2024/02/28 07:57:12;;;;;;;21.60;12.87;;;4.20;99.90;;;;;;4957275;28;20218;-50
2024/02/28 07:59:43;;;;;;;19.60;12.60;;;4.20;99.90;;;;;;4948955;28;20218;-54
2024/02/28 08:02:11;;;;;;;20.03;12.03;;;4.20;99.90;;;;;;4953330;28;20296;-51
2024/02/28 08:04:38;;;;;;;19.70;13.53;;;4.30;99.90;;;;;;4927589;28;20213;-52
2024/02/28 08:07:06;;;;;;;16.47;11.57;;;4.30;99.90;;;;;;4965914;28;20935;-51
2024/02/28 08:09:33;;;;;;;19.80;12.33;;;4.30;99.90;;;;;;4950819;28;20277;-53
2024/02/28 08:12:00;;;;;;;19.23;12.37;;;4.30;99.90;;;;;;4956923;28;20206;-49
2024/02/28 08:14:28;;;;;;;23.03;13.50;;;4.40;99.90;;;;;;4952777;28;20202;-54
2024/02/28 08:16:55;;;;;;;20.93;13.37;;;4.40;99.90;;;;;;4955874;28;20739;-52
2024/02/28 08:19:22;;;;;;;21.67;13.47;;;4.40;99.90;;;;;;4938477;28;20250;-53
2024/02/28 08:21:49;;;;;;;20.53;12.37;;;4.50;99.90;;;;;;4958350;28;20703;-53
2024/02/28 08:24:17;;;;;;;20.30;13.67;;;4.50;99.90;;;;;;4955125;28;20285;-54
2024/02/28 08:26:44;;;;;;;23.90;14.80;;;4.50;99.90;;;;;;4952555;28;21349;-52
2024/02/28 08:29:11;;;;;;;22.67;14.03;;;4.50;99.90;;;;;;4966600;28;20578;-51
2024/02/28 08:31:42;;;;;;;27.10;15.87;;;4.60;99.90;;;;;;4942558;28;20261;-54
2024/02/28 08:34:09;;;;;;;23.33;15.03;;;4.70;99.90;;;;;;4939453;28;20752;-54
2024/02/28 08:36:37;;;;;;;23.00;14.37;;;4.70;99.90;;;;;;4956202;28;20202;-52
2024/02/28 08:39:04;;;;;;;22.53;15.73;;;4.80;99.90;;;;;;4964581;28;20222;-51
2024/02/28 08:41:35;;;;;;;25.33;15.07;;;4.70;99.90;;;;;;4949231;28;20242;-52
2024/02/28 08:44:02;;;;;;;27.87;16.97;;;4.80;99.90;;;;;;4960240;28;20198;-50
2024/02/28 08:46:28;;;;;;;25.27;16.40;;;4.70;99.90;;;;;;4937851;28;20212;-49
2024/02/28 08:48:55;;;;;;;23.57;15.37;;;4.70;99.90;;;;;;4965125;28;20218;-53
2024/02/28 08:51:22;;;;;;;32.60;18.00;;;4.70;99.90;;;;;;4937806;28;20226;-54
2024/02/28 08:53:49;;;;;;;29.00;17.87;;;4.80;99.90;;;;;;4958132;28;20202;-54
2024/02/28 08:56:16;;;;;;;32.40;18.80;;;4.90;99.90;;;;;;4951103;28;20294;-54
2024/02/28 08:58:44;;;;;;;30.47;18.73;;;5.00;99.90;;;;;;4952271;28;20966;-55
2024/02/28 09:01:15;;;;;;;28.73;18.30;;;5.30;99.90;;;;;;4949376;28;20317;-53
2024/02/28 09:03:42;;;;;;;31.67;18.13;;;5.50;99.90;;;;;;4965617;28;20206;-51
2024/02/28 09:06:09;;;;;;;24.30;16.70;;;5.60;99.90;;;;;;4939671;28;20265;-54
2024/02/28 09:08:36;;;;;;;30.80;19.07;;;5.70;99.90;;;;;;4956997;28;20241;-55
2024/02/28 09:11:05;;;;;;;29.40;17.77;;;5.90;99.90;;;;;;4957151;28;20206;-53
2024/02/28 09:13:31;;;;;;;29.67;18.73;;;6.00;99.90;;;;;;4955138;28;20277;-51
2024/02/28 09:16:00;;;;;;;27.77;17.80;;;5.90;99.90;;;;;;4956781;28;20232;-56
2024/02/28 09:18:26;;;;;;;28.50;17.93;;;5.90;99.90;;;;;;4945055;28;20716;-55
2024/02/28 09:20:54;;;;;;;29.50;18.33;;;5.80;99.90;;;;;;4939209;28;20660;-52
2024/02/28 09:23:21;;;;;;;26.87;17.23;;;5.90;99.90;;;;;;4961259;28;20210;-53
2024/02/28 09:25:47;;;;;;;29.57;18.20;;;6.00;99.90;;;;;;4957104;28;20202;-52
2024/02/28 09:28:15;;;;;;;28.27;17.80;;;6.10;99.90;;;;;;4955466;28;20281;-54
2024/02/28 09:30:43;;;;;;;25.43;16.13;;;6.10;99.90;;;;;;4951726;28;20209;-53
2024/02/28 09:33:11;;;;;;;26.47;15.87;;;6.00;99.90;;;;;;4948940;28;20205;-53
2024/02/28 09:35:38;;;;;;;28.80;17.10;;;6.00;99.90;;;;;;4936529;28;20218;-49
2024/02/28 09:38:05;;;;;;;25.23;16.37;;;6.10;99.90;;;;;;4964384;28;20261;-52
2024/02/28 09:40:32;;;;;;;28.63;17.57;;;6.20;99.90;;;;;;4952041;28;20356;-53
2024/02/28 09:43:03;;;;;;;23.97;16.43;;;6.30;99.90;;;;;;4955999;28;20310;-54
2024/02/28 09:45:31;;;;;;;24.30;16.40;;;6.30;99.90;;;;;;4949171;28;20856;-54
2024/02/28 09:47:59;;;;;;;23.13;14.20;;;6.30;99.90;;;;;;4949963;28;20310;-54
2024/02/28 09:50:28;;;;;;;23.50;15.10;;;6.30;99.90;;;;;;4960945;28;20597;-51
2024/02/28 09:52:55;;;;;;;22.70;14.80;;;6.20;99.90;;;;;;4934573;28;20591;-54
2024/02/28 09:55:22;;;;;;;23.53;15.73;;;6.20;99.90;;;;;;4960744;28;20205;-52
2024/02/28 09:57:49;;;;;;;23.97;14.80;;;6.30;99.90;;;;;;4947482;28;20205;-51
2024/02/28 10:00:20;;;;;;;24.00;15.37;;;6.40;99.90;;;;;;4955277;28;20321;-54
2024/02/28 10:02:49;;;;;;;25.00;15.73;;;6.50;99.90;;;;;;4957340;28;20220;-54
2024/02/28 10:05:18;;;;;;;23.53;15.03;;;6.60;99.90;;;;;;4948269;28;20374;-54
2024/02/28 10:07:47;;;;;;;21.77;14.43;;;6.60;99.90;;;;;;4937334;28;20213;-55
2024/02/28 10:10:14;;;;;;;24.20;15.60;;;6.70;99.90;;;;;;4960784;28;20366;-54
2024/02/28 10:12:44;;;;;;;21.77;14.77;;;6.70;99.90;;;;;;4957563;28;20558;-50
2024/02/28 10:15:11;;;;;;;21.07;14.40;;;6.90;99.90;;;;;;4945577;28;20190;-52
2024/02/28 10:17:38;;;;;;;23.73;14.83;;;6.90;99.90;;;;;;4957547;28;20225;-50
2024/02/28 10:20:06;;;;;;;22.93;14.43;;;6.90;99.90;;;;;;4945339;28;20234;-57
2024/02/28 10:22:37;;;;;;;22.30;14.23;;;7.00;99.90;;;;;;4938721;28;20667;-50
2024/02/28 10:25:06;;;;;;;22.73;14.30;;;7.10;99.90;;;;;;4962864;28;20317;-56
2024/02/28 10:27:34;;;;;;;22.73;13.30;;;7.10;99.90;;;;;;4957574;28;20212;-50
2024/02/28 10:30:04;;;;;;;20.90;13.10;;;7.20;99.90;;;;;;4952520;28;20222;-56
2024/02/28 10:32:31;;;;;;;21.17;13.53;;;7.30;99.90;;;;;;4953684;28;20261;-49
2024/02/28 10:34:59;;;;;;;21.50;13.73;;;7.30;99.90;;;;;;4944581;28;20753;-56
2024/02/28 10:37:30;;;;;;;20.47;13.70;;;7.40;99.90;;;;;;4963296;28;20605;-54
2024/02/28 10:39:58;;;;;;;23.27;14.23;;;7.50;99.90;;;;;;4934955;28;20244;-56
2024/02/28 10:42:27;;;;;;;21.00;13.17;;;7.60;99.90;;;;;;4962715;28;20390;-51
2024/02/28 10:44:56;;;;;;;20.27;12.57;;;7.60;99.90;;;;;;4946354;28;20220;-55
2024/02/28 10:47:23;;;;;;;16.33;11.83;;;7.60;99.90;;;;;;4962318;28;20249;-52
2024/02/28 10:49:50;;;;;;;20.17;13.00;;;7.50;99.90;;;;;;4938533;28;20739;-58
2024/02/28 10:52:21;;;;;;;20.33;13.67;;;7.60;99.90;;;;;;4960639;28;20186;-51
2024/02/28 10:54:54;;;;;;;21.50;13.27;;;7.70;99.90;;;;;;4936060;28;20284;-55
2024/02/28 10:57:25;;;;;;;21.50;14.30;;;7.70;99.90;;;;;;4957696;28;20194;-48
2024/02/28 10:59:53;;;;;;;20.17;13.93;;;7.70;99.90;;;;;;4947256;28;20635;-56
2024/02/28 11:02:20;;;;;;;21.70;13.53;;;7.70;99.90;;;;;;4961551;28;20275;-50
2024/02/28 11:04:47;;;;;;;21.10;13.17;;;7.70;99.90;;;;;;4940168;28;20325;-55
2024/02/28 11:07:20;;;;;;;22.47;13.57;;;7.90;99.90;;;;;;4960352;28;20209;-52
2024/02/28 11:09:47;;;;;;;20.27;13.80;;;7.90;99.90;;;;;;4936821;28;20242;-56
2024/02/28 11:12:26;;;;;;;18.43;12.90;;;7.90;99.90;;;;;;4958480;28;20198;-49
2024/02/28 11:14:58;;;;;;;24.93;14.07;;;8.00;99.90;;;;;;4956139;28;20217;-57
2024/02/28 11:17:27;;;;;;;18.77;12.73;;;8.00;99.90;;;;;;4959877;28;20808;-51
2024/02/28 11:19:54;;;;;;;16.63;10.97;;;8.00;99.90;;;;;;4938268;28;20633;-55
2024/02/28 11:22:21;;;;;;;16.53;10.27;;;8.00;99.90;;;;;;4956294;28;20276;-52
2024/02/28 11:24:49;;;;;;;18.50;10.23;;;7.90;99.90;;;;;;4935886;28;20213;-54
2024/02/28 11:27:16;;;;;;;19.13;11.57;;;7.80;99.90;;;;;;4960525;28;20187;-51
2024/02/28 11:29:46;;;;;;;17.03;10.53;;;7.90;99.90;;;;;;4962274;28;20226;-49
2024/02/28 11:32:15;;;;;;;17.97;11.33;;;7.90;99.90;;;;;;4951090;28;20985;-51
2024/02/28 11:34:43;;;;;;;17.23;11.60;;;7.90;99.90;;;;;;4954824;28;20257;-50
2024/02/28 11:37:11;;;;;;;21.87;11.80;;;7.90;99.90;;;;;;4943047;28;20190;-52
2024/02/28 11:39:38;;;;;;;19.87;12.73;;;7.90;99.90;;;;;;4937087;28;20228;-48
2024/02/28 11:42:15;;;;;;;23.17;14.13;;;7.90;99.90;;;;;;4959464;28;20735;-55
2024/02/28 11:44:42;;;;;;;19.97;13.37;;;8.00;99.90;;;;;;4961960;28;20600;-52
2024/02/28 11:47:11;;;;;;;21.60;12.77;;;8.00;99.90;;;;;;4950799;28;20229;-53
2024/02/28 11:49:39;;;;;;;18.53;13.03;;;8.10;99.90;;;;;;4960631;28;20261;-48
2024/02/28 11:52:06;;;;;;;18.33;11.90;;;8.00;99.90;;;;;;4946695;28;20276;-54
2024/02/28 11:54:33;;;;;;;16.80;11.63;;;7.90;99.90;;;;;;4965288;28;20272;-49
2024/02/28 11:57:00;;;;;;;19.10;11.70;;;7.90;99.90;;;;;;4936932;28;20692;-56
2024/02/28 11:59:26;;;;;;;15.43;10.83;;;7.80;99.90;;;;;;4965672;28;20242;-51
2024/02/28 12:01:55;;;;;;;16.20;10.73;;;7.70;99.90;;;;;;4965175;28;20222;-55
2024/02/28 12:04:26;;;;;;;18.67;12.03;;;7.70;99.90;;;;;;4954399;28;20190;-52
2024/02/28 12:06:54;;;;;;;22.07;13.00;;;7.80;99.90;;;;;;4951094;28;20676;-56
2024/02/28 12:09:21;;;;;;;19.40;12.40;;;7.80;99.90;;;;;;4955535;28;20224;-53
2024/02/28 12:11:47;;;;;;;19.83;13.40;;;7.80;99.90;;;;;;4938612;28;20210;-54
2024/02/28 12:14:14;;;;;;;21.93;13.10;;;7.80;99.90;;;;;;4964043;28;20186;-50
2024/02/28 12:16:41;;;;;;;19.60;12.97;;;7.70;99.90;;;;;;4963037;28;20202;-52
2024/02/28 12:19:09;;;;;;;16.13;10.87;;;7.80;99.90;;;;;;4952513;28;20661;-51
2024/02/28 12:21:37;;;;;;;18.30;12.43;;;7.80;99.90;;;;;;4953212;28;20305;-49
2024/02/28 12:24:05;;;;;;;18.60;12.60;;;7.80;99.90;;;;;;4946204;28;20280;-56
2024/02/28 12:26:32;;;;;;;20.67;12.57;;;7.70;99.90;;;;;;4939461;28;20676;-53
2024/02/28 12:28:59;;;;;;;19.30;13.13;;;7.60;99.90;;;;;;4964185;28;20572;-55
2024/02/28 12:31:26;;;;;;;20.30;12.10;;;7.60;99.90;;;;;;4963917;28;20289;-50
2024/02/28 12:33:53;;;;;;;19.33;11.77;;;7.50;99.90;;;;;;4962687;28;20198;-57
2024/02/28 12:36:20;;;;;;;17.23;11.93;;;7.50;99.90;;;;;;4951389;28;21000;-53